createdAt,value
2022-07-25T00:01:00.821Z,9.48
2022-07-25T00:03:28.538Z,8.93
2022-07-25T00:05:55.852Z,9.48
2022-07-25T00:08:23.073Z,8.90
2022-07-25T00:10:50.296Z,9.32
2022-07-25T00:13:17.512Z,9.10
2022-07-25T00:15:44.788Z,9.18
2022-07-25T00:18:12.113Z,9.27
2022-07-25T00:20:39.341Z,9.85
2022-07-25T00:23:06.573Z,9.07
2022-07-25T00:25:33.932Z,8.98
2022-07-25T00:28:01.191Z,9.60
2022-07-25T00:30:28.405Z,9.23
2022-07-25T00:32:55.704Z,9.52
2022-07-25T00:35:22.964Z,9.32
2022-07-25T00:37:50.192Z,9.93
2022-07-25T00:40:17.447Z,9.43
2022-07-25T00:42:44.663Z,10.10
2022-07-25T00:45:11.937Z,9.27
2022-07-25T00:47:39.181Z,9.25
2022-07-25T00:50:06.926Z,10.23
2022-07-25T00:52:35.236Z,9.73
2022-07-25T00:55:02.498Z,9.43
2022-07-25T00:57:29.715Z,9.73
2022-07-25T00:59:56.941Z,10.05
2022-07-25T01:02:24.290Z,9.68
2022-07-25T01:04:51.598Z,10.45
2022-07-25T01:07:18.832Z,9.85
2022-07-25T01:09:46.117Z,10.15
2022-07-25T01:12:13.436Z,9.95
2022-07-25T01:14:40.654Z,9.52
2022-07-25T01:17:07.864Z,9.80
2022-07-25T01:19:35.089Z,10.60
2022-07-25T01:22:02.356Z,10.18
2022-07-25T01:24:29.676Z,9.77
2022-07-25T01:26:56.899Z,10.55
2022-07-25T01:29:24.132Z,10.60
2022-07-25T01:31:51.359Z,10.93
2022-07-25T01:34:18.579Z,11.43
2022-07-25T01:36:45.818Z,10.88
2022-07-25T01:39:13.051Z,10.80
2022-07-25T01:41:40.356Z,10.43
2022-07-25T01:44:08.045Z,11.00
2022-07-25T01:46:35.732Z,11.68
2022-07-25T01:49:03.189Z,12.38
2022-07-25T01:51:30.583Z,10.63
2022-07-25T01:53:57.795Z,10.75
2022-07-25T01:56:25.030Z,11.07
2022-07-25T01:58:52.309Z,10.98
2022-07-25T02:01:21.769Z,11.35
2022-07-25T02:03:49.500Z,11.38
2022-07-25T02:06:17.862Z,11.15
2022-07-25T02:08:45.110Z,11.65
2022-07-25T02:11:12.330Z,11.70
2022-07-25T02:13:39.875Z,12.57
2022-07-25T02:16:07.088Z,11.23
2022-07-25T02:18:34.391Z,11.90
2022-07-25T02:21:01.682Z,12.00
2022-07-25T02:23:28.909Z,11.77
2022-07-25T02:25:56.163Z,12.57
2022-07-25T02:28:23.402Z,11.43
2022-07-25T02:30:50.786Z,11.93
2022-07-25T02:33:18.142Z,11.63
2022-07-25T02:35:45.461Z,12.57
2022-07-25T02:38:19.448Z,11.82
2022-07-25T02:40:47.660Z,11.10
2022-07-25T02:43:14.928Z,11.88
2022-07-25T02:45:43.051Z,11.65
2022-07-25T02:48:10.383Z,12.35
2022-07-25T02:50:37.959Z,12.10
2022-07-25T02:53:05.438Z,11.98
2022-07-25T02:55:32.707Z,11.63
2022-07-25T02:57:59.979Z,12.10
2022-07-25T03:00:27.377Z,12.20
2022-07-25T03:02:54.643Z,13.15
2022-07-25T03:05:21.946Z,12.00
2022-07-25T03:07:49.261Z,12.38
2022-07-25T03:10:16.559Z,13.55
2022-07-25T03:12:43.948Z,13.18
2022-07-25T03:15:11.890Z,12.63
2022-07-25T03:17:39.244Z,12.77
2022-07-25T03:20:07.264Z,12.85
2022-07-25T03:22:35.086Z,13.25
2022-07-25T03:25:02.419Z,13.00
2022-07-25T03:27:30.049Z,13.07
2022-07-25T03:29:58.236Z,12.68
2022-07-25T03:32:25.566Z,13.05
2022-07-25T03:34:52.842Z,12.65
2022-07-25T03:37:20.140Z,12.75
2022-07-25T03:39:47.706Z,12.75
2022-07-25T03:42:15.207Z,14.00
2022-07-25T03:44:42.475Z,13.95
2022-07-25T03:47:09.772Z,13.32
2022-07-25T03:49:48.056Z,14.15
2022-07-25T03:52:15.311Z,13.35
2022-07-25T03:54:42.571Z,13.07
2022-07-25T03:57:11.656Z,14.32
2022-07-25T03:59:39.070Z,14.52
2022-07-25T04:02:06.432Z,14.85
2022-07-25T04:04:33.736Z,13.65
2022-07-25T04:07:00.989Z,13.30
2022-07-25T04:09:28.286Z,13.20
2022-07-25T04:12:00.967Z,14.35
2022-07-25T04:14:28.219Z,13.32
2022-07-25T04:16:55.614Z,13.13
2022-07-25T04:19:22.928Z,13.27
2022-07-25T04:21:53.413Z,13.32
2022-07-25T04:24:20.703Z,13.45
2022-07-25T04:26:47.995Z,12.90
2022-07-25T04:29:15.796Z,13.60
2022-07-25T04:31:43.089Z,13.05
2022-07-25T04:34:10.581Z,12.60
2022-07-25T04:36:37.845Z,12.90
2022-07-25T04:39:05.122Z,13.27
2022-07-25T04:41:32.381Z,14.02
2022-07-25T04:43:59.642Z,13.55
2022-07-25T04:46:26.918Z,13.15
2022-07-25T04:48:54.367Z,14.05
2022-07-25T04:51:21.679Z,13.43
2022-07-25T04:53:49.101Z,12.98
2022-07-25T04:56:16.445Z,13.50
2022-07-25T04:58:43.782Z,13.00
2022-07-25T05:01:11.144Z,13.18
2022-07-25T05:03:38.457Z,13.98
2022-07-25T05:06:05.954Z,14.50
2022-07-25T05:08:33.197Z,13.80
2022-07-25T05:11:00.449Z,15.65
2022-07-25T05:13:27.725Z,16.02
2022-07-25T05:15:55.030Z,16.52
2022-07-25T05:18:22.337Z,14.57
2022-07-25T05:20:49.586Z,13.68
2022-07-25T05:23:16.881Z,15.35
2022-07-25T05:25:44.199Z,15.65
2022-07-25T05:28:11.572Z,14.60
2022-07-25T05:30:40.025Z,14.00
2022-07-25T05:33:07.713Z,12.45
2022-07-25T05:35:34.982Z,12.40
2022-07-25T05:38:02.209Z,12.35
2022-07-25T05:40:29.479Z,12.68
2022-07-25T05:43:00.948Z,12.07
2022-07-25T05:45:29.760Z,12.20
2022-07-25T05:47:57.011Z,11.80
2022-07-25T05:50:24.338Z,11.82
2022-07-25T05:52:51.654Z,10.95
2022-07-25T05:55:19.056Z,11.90
2022-07-25T05:57:46.290Z,11.73
2022-07-25T06:00:13.879Z,11.25
2022-07-25T06:02:41.283Z,11.35
2022-07-25T06:05:08.978Z,11.07
2022-07-25T06:07:36.246Z,11.00
2022-07-25T06:10:04.243Z,11.20
2022-07-25T06:12:33.557Z,11.48
2022-07-25T06:15:04.978Z,11.48
2022-07-25T06:17:32.883Z,10.45
2022-07-25T06:20:00.391Z,11.13
2022-07-25T06:22:27.650Z,10.85
2022-07-25T06:24:54.895Z,10.30
2022-07-25T06:27:26.094Z,10.02
2022-07-25T06:29:56.443Z,11.00
2022-07-25T06:32:23.708Z,10.45
2022-07-25T06:34:51.150Z,9.77
2022-07-25T06:37:18.378Z,10.52
2022-07-25T06:39:46.217Z,11.35
2022-07-25T06:42:13.630Z,10.45
2022-07-25T06:44:41.107Z,9.55
2022-07-25T06:47:12.577Z,11.13
2022-07-25T06:49:40.745Z,10.57
2022-07-25T06:52:08.285Z,10.70
2022-07-25T06:54:35.691Z,10.02
2022-07-25T06:57:03.056Z,9.93
2022-07-25T06:59:30.424Z,10.70
2022-07-25T07:01:57.692Z,10.25
2022-07-25T07:04:24.958Z,11.13
2022-07-25T07:06:52.318Z,11.07
2022-07-25T07:09:19.556Z,10.13
2022-07-25T07:11:46.853Z,10.30
2022-07-25T07:14:14.115Z,9.70
2022-07-25T07:16:42.361Z,9.85
2022-07-25T07:19:14.503Z,10.30
2022-07-25T07:21:42.138Z,10.13
2022-07-25T07:24:24.234Z,9.88
2022-07-25T07:26:55.468Z,9.65
2022-07-25T07:29:22.722Z,10.18
2022-07-25T07:31:50.067Z,10.13
2022-07-25T07:34:17.368Z,10.30
2022-07-25T07:36:44.681Z,10.52
2022-07-25T07:39:11.986Z,9.52
2022-07-25T07:41:39.316Z,9.73
2022-07-25T07:44:06.933Z,10.60
2022-07-25T07:46:34.354Z,10.05
2022-07-25T07:49:01.849Z,10.20
2022-07-25T07:51:29.200Z,9.48
2022-07-25T07:54:15.100Z,8.88
2022-07-25T07:56:42.685Z,10.00
2022-07-25T07:59:10.544Z,9.30
2022-07-25T08:01:38.060Z,9.02
2022-07-25T08:04:05.638Z,8.75
2022-07-25T08:06:32.894Z,9.05
2022-07-25T08:09:00.145Z,9.38
2022-07-25T08:11:27.418Z,9.40
2022-07-25T08:13:54.685Z,9.25
2022-07-25T08:16:22.008Z,9.35
2022-07-25T08:18:49.295Z,10.65
2022-07-25T08:21:16.547Z,9.13
2022-07-25T08:23:47.056Z,9.30
2022-07-25T08:26:14.384Z,9.65
2022-07-25T08:28:41.976Z,10.13
2022-07-25T08:31:10.158Z,9.52
2022-07-25T08:33:37.641Z,9.20
2022-07-25T08:36:05.216Z,9.75
2022-07-25T08:38:32.476Z,9.55
2022-07-25T08:40:59.938Z,9.52
2022-07-25T08:43:29.247Z,9.80
2022-07-25T08:45:56.654Z,8.50
2022-07-25T08:48:25.115Z,9.48
2022-07-25T08:50:53.816Z,9.10
2022-07-25T08:53:36.878Z,10.13
2022-07-25T08:56:11.212Z,9.52
2022-07-25T08:58:40.306Z,9.98
2022-07-25T09:01:08.250Z,9.73
2022-07-25T09:03:36.373Z,9.60
2022-07-25T09:06:17.146Z,8.85
2022-07-25T09:08:55.175Z,9.38
2022-07-25T09:11:33.209Z,9.50
2022-07-25T09:14:05.884Z,9.13
2022-07-25T09:16:36.227Z,9.40
2022-07-25T09:19:10.595Z,8.65
2022-07-25T09:21:39.819Z,9.15
2022-07-25T09:24:17.531Z,8.55
2022-07-25T09:26:56.599Z,10.07
2022-07-25T09:29:32.054Z,8.40
2022-07-25T09:32:00.078Z,8.07
2022-07-25T09:34:31.770Z,8.65
2022-07-25T09:36:59.073Z,8.30
2022-07-25T09:39:40.791Z,7.68
2022-07-25T09:42:36.139Z,8.05
2022-07-25T09:45:09.887Z,7.28
2022-07-25T09:47:38.163Z,7.15
2022-07-25T09:50:06.531Z,7.93
2022-07-25T09:52:34.368Z,7.93
2022-07-25T09:55:03.698Z,8.05
2022-07-25T09:57:30.949Z,8.15
2022-07-25T10:00:00.172Z,7.25
2022-07-25T10:02:39.703Z,6.90
2022-07-25T10:05:17.881Z,6.80
2022-07-25T10:07:47.299Z,6.70
2022-07-25T10:10:31.597Z,6.82
2022-07-25T10:13:10.437Z,7.20
2022-07-25T10:15:45.157Z,7.25
2022-07-25T10:18:13.170Z,7.93
2022-07-25T10:20:40.494Z,7.20
2022-07-25T10:23:40.254Z,7.60
2022-07-25T10:26:11.241Z,7.40
2022-07-25T10:28:43.468Z,7.13
2022-07-25T10:31:21.736Z,7.70
2022-07-25T10:33:59.546Z,7.20
2022-07-25T10:36:33.546Z,6.35
2022-07-25T10:39:01.183Z,6.20
2022-07-25T10:41:28.926Z,7.10
2022-07-25T10:43:57.207Z,6.78
2022-07-25T10:46:27.209Z,7.18
2022-07-25T10:49:05.904Z,5.97
2022-07-25T10:51:40.941Z,6.57
2022-07-25T10:54:13.501Z,6.50
2022-07-25T10:56:51.100Z,7.57
2022-07-25T10:59:29.816Z,6.20
2022-07-25T11:01:57.170Z,7.78
2022-07-25T11:04:24.576Z,7.60
2022-07-25T11:06:51.893Z,7.07
2022-07-25T11:09:27.579Z,6.90
2022-07-25T11:11:57.194Z,6.40
2022-07-25T11:14:30.966Z,6.00
2022-07-25T11:16:58.312Z,5.80
2022-07-25T11:19:27.155Z,5.72
2022-07-25T11:21:59.347Z,5.10
2022-07-25T11:24:40.440Z,5.97
2022-07-25T11:27:12.258Z,5.85
2022-07-25T11:29:40.260Z,6.03
2022-07-25T11:32:11.263Z,5.22
2022-07-25T11:34:57.480Z,4.90
2022-07-25T11:37:24.837Z,5.13
2022-07-25T11:39:53.025Z,5.20
2022-07-25T11:42:20.514Z,5.30
2022-07-25T11:44:49.392Z,5.35
2022-07-25T11:47:27.220Z,4.60
2022-07-25T11:49:55.578Z,5.80
2022-07-25T11:52:33.478Z,5.78
2022-07-25T11:55:11.089Z,5.95
2022-07-25T11:57:40.060Z,5.22
2022-07-25T12:00:20.897Z,4.68
2022-07-25T12:02:50.053Z,4.70
2022-07-25T12:05:21.574Z,4.53
2022-07-25T12:07:53.147Z,4.10
2022-07-25T12:10:24.289Z,4.32
2022-07-25T12:12:55.836Z,4.55
2022-07-25T12:15:28.148Z,4.47
2022-07-25T12:17:56.047Z,4.82
2022-07-25T12:20:24.948Z,4.75
2022-07-25T12:22:54.430Z,4.68
2022-07-25T12:25:21.844Z,4.32
2022-07-25T12:27:49.416Z,6.10
2022-07-25T12:30:16.780Z,5.00
2022-07-25T12:32:44.175Z,4.72
2022-07-25T12:35:12.300Z,5.75
2022-07-25T12:37:40.709Z,5.25
2022-07-25T12:40:08.397Z,5.05
2022-07-25T12:42:35.645Z,5.20
2022-07-25T12:45:03.041Z,5.60
2022-07-25T12:47:30.491Z,12.52
2022-07-25T12:49:57.754Z,5.25
2022-07-25T12:52:25.028Z,4.68
2022-07-25T12:54:52.418Z,4.80
2022-07-25T12:57:20.784Z,5.28
2022-07-25T12:59:48.125Z,5.10
2022-07-25T13:02:15.497Z,5.20
2022-07-25T13:04:42.990Z,4.50
2022-07-25T13:07:10.322Z,4.78
2022-07-25T13:09:37.588Z,5.25
2022-07-25T13:12:05.319Z,5.35
2022-07-25T13:14:32.605Z,5.18
2022-07-25T13:16:59.958Z,6.15
2022-07-25T13:19:27.394Z,5.28
2022-07-25T13:21:54.646Z,4.82
2022-07-25T13:24:21.935Z,4.95
2022-07-25T13:26:49.252Z,5.38
2022-07-25T13:29:16.547Z,5.00
2022-07-25T13:31:47.323Z,4.95
2022-07-25T13:34:15.059Z,5.30
2022-07-25T13:36:42.338Z,4.80
2022-07-25T13:39:09.930Z,4.63
2022-07-25T13:41:37.391Z,5.10
2022-07-25T13:44:04.942Z,5.25
2022-07-25T13:46:32.511Z,4.50
2022-07-25T13:49:00.027Z,4.75
2022-07-25T13:51:27.369Z,5.20
2022-07-25T13:53:54.653Z,4.80
2022-07-25T13:56:21.941Z,5.45
2022-07-25T13:58:49.134Z,4.57
2022-07-25T14:01:16.431Z,5.53
2022-07-25T14:03:44.091Z,4.95
2022-07-25T14:06:12.851Z,5.00
2022-07-25T14:08:40.413Z,5.47
2022-07-25T14:11:08.369Z,4.93
2022-07-25T14:13:36.123Z,4.90
2022-07-25T14:16:03.638Z,5.85
2022-07-25T14:18:31.964Z,4.78
2022-07-25T14:20:59.550Z,5.15
2022-07-25T14:23:29.947Z,5.18
2022-07-25T14:25:58.790Z,4.03
2022-07-25T14:28:26.297Z,4.85
2022-07-25T14:30:53.630Z,5.03
